Earleton, Florida
Current Conditions -  °F | °C
As of 2:50 PM on Friday 24 Oct 2014 (Local Time) from KOCF Reporting Station
Few Clouds Few Clouds  
Wind Chill: 79°   Ceiling: Unl
Heat Index: 79°   Visibility: 10mi
Dew Point: 52°   Wind: 6mph
Humidity: 39%   Direction: 60°ENE
Pressure: 29.96"   Gusts: NA
Location:  29.43°N, 82.21°W
Report Text: KOCF 241850Z 06005KT 10SM FEW060 26/11 A2996
Loading
Personal Weather Stations






























Interactive Weather Map
Tropical Storm Tracking
New forecast layout! Learn more

10-Day Weather Forecast

Advertisements
Track Severe Weather on mobile